createdAt,value
2022-08-21T00:00:58.464Z,20.26
2022-08-21T00:03:26.739Z,19.03
2022-08-21T00:05:54.341Z,18.77
2022-08-21T00:08:23.482Z,18.46
2022-08-21T00:10:51.530Z,18.83
2022-08-21T00:13:21.427Z,18.35
2022-08-21T00:15:50.483Z,18.11
2022-08-21T00:18:20.185Z,18.42
2022-08-21T00:20:48.791Z,18.60
2022-08-21T00:23:16.562Z,18.52
2022-08-21T00:25:46.142Z,19.47
2022-08-21T00:28:14.925Z,19.89
2022-08-21T00:30:43.203Z,20.08
2022-08-21T00:33:11.679Z,19.73
2022-08-21T00:35:42.952Z,19.71
2022-08-21T00:38:11.527Z,19.94
2022-08-21T00:40:43.459Z,20.06
2022-08-21T00:43:15.765Z,19.95
2022-08-21T00:45:43.470Z,19.91
2022-08-21T00:48:11.002Z,20.10
2022-08-21T00:50:44.031Z,20.20
2022-08-21T00:53:13.411Z,19.63
2022-08-21T00:55:41.879Z,19.64
2022-08-21T00:58:13.654Z,19.83
2022-08-21T01:00:43.373Z,19.87
2022-08-21T01:03:13.992Z,19.75
2022-08-21T01:05:42.653Z,19.76
2022-08-21T01:08:11.128Z,19.83
2022-08-21T01:10:39.286Z,19.66
2022-08-21T01:13:10.763Z,19.48
2022-08-21T01:15:43.966Z,19.26
2022-08-21T01:18:12.868Z,19.55
2022-08-21T01:20:45.209Z,19.53
2022-08-21T01:23:15.306Z,19.58
2022-08-21T01:25:43.443Z,19.54
2022-08-21T01:28:14.948Z,19.37
2022-08-21T01:30:44.967Z,19.22
2022-08-21T01:33:12.926Z,19.19
2022-08-21T01:35:40.540Z,19.29
2022-08-21T01:38:08.064Z,19.28
2022-08-21T01:40:37.311Z,19.21
2022-08-21T01:43:04.881Z,19.18
2022-08-21T01:45:32.560Z,19.15
2022-08-21T01:48:00.126Z,19.18
2022-08-21T01:50:27.634Z,19.23
2022-08-21T01:52:55.136Z,19.25
2022-08-21T01:55:23.863Z,19.19
2022-08-21T01:57:52.761Z,19.07
2022-08-21T02:00:23.682Z,18.88
2022-08-21T02:02:51.945Z,18.87
2022-08-21T02:05:20.452Z,18.97
2022-08-21T02:07:50.836Z,18.96
2022-08-21T02:10:21.965Z,18.96
2022-08-21T02:12:50.585Z,18.78
2022-08-21T02:15:20.404Z,18.82
2022-08-21T02:17:51.373Z,18.88
2022-08-21T02:20:22.273Z,18.96
2022-08-21T02:22:50.453Z,18.97
2022-08-21T02:25:18.607Z,18.97
2022-08-21T02:27:48.536Z,18.96
2022-08-21T02:30:18.110Z,18.99
2022-08-21T02:32:46.965Z,19.06
2022-08-21T02:35:14.695Z,19.14
2022-08-21T02:37:48.226Z,19.24
2022-08-21T02:40:16.308Z,19.26
2022-08-21T02:42:44.690Z,19.28
2022-08-21T02:45:13.224Z,19.28
2022-08-21T02:47:40.874Z,19.16
2022-08-21T02:50:10.166Z,19.10
2022-08-21T02:52:37.846Z,19.19
2022-08-21T02:55:06.167Z,19.26
2022-08-21T02:57:33.704Z,19.27
2022-08-21T03:00:01.279Z,19.19
2022-08-21T03:02:28.812Z,19.10
2022-08-21T03:04:56.619Z,19.12
2022-08-21T03:07:25.558Z,19.02
2022-08-21T03:09:55.514Z,18.84
2022-08-21T03:12:23.661Z,18.92
2022-08-21T03:14:51.153Z,18.92
2022-08-21T03:17:18.759Z,18.92
2022-08-21T03:19:57.484Z,18.94
2022-08-21T03:22:27.073Z,18.89
2022-08-21T03:24:54.811Z,18.91
2022-08-21T03:27:22.428Z,18.91
2022-08-21T03:29:50.872Z,18.91
2022-08-21T03:32:18.388Z,18.89
2022-08-21T03:34:46.070Z,18.84
2022-08-21T03:37:15.782Z,18.75
2022-08-21T03:39:45.655Z,18.65
2022-08-21T03:42:13.621Z,18.69
2022-08-21T03:44:41.442Z,18.67
2022-08-21T03:47:08.974Z,18.63
2022-08-21T03:49:36.482Z,18.65
2022-08-21T03:52:05.370Z,18.64
2022-08-21T03:54:33.449Z,18.70
2022-08-21T03:57:03.856Z,18.69
2022-08-21T03:59:31.396Z,18.65
2022-08-21T04:02:01.630Z,18.71
2022-08-21T04:04:30.265Z,18.78
2022-08-21T04:06:58.598Z,18.89
2022-08-21T04:09:27.378Z,18.87
2022-08-21T04:11:55.498Z,18.73
2022-08-21T04:14:24.542Z,18.76
2022-08-21T04:16:52.039Z,18.74
2022-08-21T04:19:19.550Z,18.74
2022-08-21T04:21:47.043Z,18.65
2022-08-21T04:24:16.700Z,18.77
2022-08-21T04:26:44.292Z,18.86
2022-08-21T04:29:12.328Z,18.94
2022-08-21T04:31:41.154Z,18.97
2022-08-21T04:34:08.682Z,19.04
2022-08-21T04:36:36.884Z,19.06
2022-08-21T04:39:04.731Z,19.04
2022-08-21T04:41:32.609Z,19.12
2022-08-21T04:44:00.266Z,19.12
2022-08-21T04:46:27.747Z,19.20
2022-08-21T04:48:57.020Z,19.24
2022-08-21T04:51:27.538Z,19.32
2022-08-21T04:54:01.740Z,19.35
2022-08-21T04:56:33.779Z,19.40
2022-08-21T04:59:04.715Z,19.49
2022-08-21T05:01:36.226Z,19.48
2022-08-21T05:04:07.611Z,19.51
2022-08-21T05:06:38.969Z,19.31
2022-08-21T05:09:10.216Z,19.31
2022-08-21T05:11:38.991Z,19.44
2022-08-21T05:14:06.496Z,19.56
2022-08-21T05:16:36.915Z,19.60
2022-08-21T05:19:07.442Z,19.65
2022-08-21T05:21:35.301Z,19.76
2022-08-21T05:24:03.088Z,19.95
2022-08-21T05:26:30.824Z,20.18
2022-08-21T05:28:58.463Z,20.36
2022-08-21T05:31:26.026Z,20.53
2022-08-21T05:33:53.587Z,20.70
2022-08-21T05:36:25.150Z,20.87
2022-08-21T05:38:52.679Z,21.01
2022-08-21T05:41:20.186Z,20.96
2022-08-21T05:43:47.704Z,21.22
2022-08-21T05:46:15.316Z,21.54
2022-08-21T05:48:42.876Z,21.65
2022-08-21T05:51:12.316Z,21.53
2022-08-21T05:53:44.012Z,21.47
2022-08-21T05:56:12.826Z,21.32
2022-08-21T05:58:41.066Z,21.19
2022-08-21T06:01:09.797Z,21.25
2022-08-21T06:03:40.091Z,21.53
2022-08-21T06:06:08.312Z,21.74
2022-08-21T06:08:36.168Z,21.90
2022-08-21T06:11:07.570Z,22.10
2022-08-21T06:13:35.651Z,22.27
2022-08-21T06:16:07.070Z,22.22
2022-08-21T06:18:34.611Z,22.20
2022-08-21T06:21:02.252Z,21.61
2022-08-21T06:23:32.831Z,22.11
2022-08-21T06:26:01.439Z,22.21
2022-08-21T06:28:31.151Z,22.75
2022-08-21T06:30:58.763Z,22.73
2022-08-21T06:33:29.316Z,22.95
2022-08-21T06:36:00.942Z,23.21
2022-08-21T06:38:28.462Z,23.75
2022-08-21T06:40:56.477Z,23.50
2022-08-21T06:43:39.460Z,24.01
2022-08-21T06:46:09.530Z,24.15
2022-08-21T06:48:37.271Z,24.50
2022-08-21T06:51:04.942Z,24.42
2022-08-21T06:53:32.476Z,24.53
2022-08-21T06:56:00.229Z,24.71
2022-08-21T06:58:27.814Z,24.12
2022-08-21T07:01:00.106Z,23.59
2022-08-21T07:03:31.884Z,21.84
2022-08-21T07:05:59.566Z,21.52
2022-08-21T07:08:28.344Z,20.62
2022-08-21T07:10:57.942Z,20.19
2022-08-21T07:13:25.516Z,20.08
2022-08-21T07:15:53.180Z,21.17
2022-08-21T07:18:21.057Z,22.96
2022-08-21T07:20:50.196Z,25.07
2022-08-21T07:23:24.768Z,26.19
2022-08-21T07:25:52.418Z,26.54
2022-08-21T07:28:20.219Z,27.32
2022-08-21T07:30:48.308Z,27.68
2022-08-21T07:33:15.804Z,28.13
2022-08-21T07:35:43.312Z,28.82
2022-08-21T07:38:12.216Z,29.11
2022-08-21T07:40:39.766Z,28.96
2022-08-21T07:43:07.539Z,27.47
2022-08-21T07:45:35.070Z,22.27
2022-08-21T07:48:02.636Z,20.94
2022-08-21T07:50:30.244Z,22.01
2022-08-21T07:52:57.849Z,22.58
2022-08-21T07:55:27.064Z,23.03
2022-08-21T07:57:54.561Z,24.90
2022-08-21T08:00:28.747Z,24.28
2022-08-21T08:02:57.625Z,23.24
2022-08-21T08:05:27.819Z,22.58
2022-08-21T08:07:56.020Z,20.84
2022-08-21T08:10:24.543Z,21.52
2022-08-21T08:12:55.445Z,22.05
2022-08-21T08:15:28.216Z,22.60
2022-08-21T08:17:56.316Z,22.97
2022-08-21T08:20:25.987Z,23.36
2022-08-21T08:22:53.962Z,22.10
2022-08-21T08:25:24.258Z,22.69
2022-08-21T08:27:53.093Z,22.81
2022-08-21T08:30:23.432Z,23.30
2022-08-21T08:32:51.438Z,24.22
2022-08-21T08:35:22.352Z,25.21
2022-08-21T08:37:52.751Z,26.20
2022-08-21T08:40:24.496Z,26.80
2022-08-21T08:42:53.467Z,25.47
2022-08-21T08:45:25.143Z,24.71
2022-08-21T08:47:58.793Z,24.50
2022-08-21T08:50:33.446Z,24.40
2022-08-21T08:53:06.071Z,24.86
2022-08-21T08:55:37.614Z,26.59
2022-08-21T08:58:06.919Z,28.47
2022-08-21T09:00:35.108Z,27.91
2022-08-21T09:03:04.642Z,27.92
2022-08-21T09:05:42.099Z,27.57
2022-08-21T09:08:30.284Z,29.39
2022-08-21T09:11:04.952Z,30.89
2022-08-21T09:13:45.376Z,32.65
2022-08-21T09:16:22.993Z,33.90
2022-08-21T09:19:01.970Z,32.03
2022-08-21T09:21:41.948Z,30.17
2022-08-21T09:24:24.831Z,30.82
2022-08-21T09:26:59.344Z,29.30
2022-08-21T09:29:31.951Z,28.95
2022-08-21T09:31:59.455Z,29.63
2022-08-21T09:34:28.784Z,28.18
2022-08-21T09:36:57.564Z,28.19
2022-08-21T09:39:28.143Z,26.79
2022-08-21T09:42:00.304Z,26.87
2022-08-21T09:44:32.733Z,27.15
2022-08-21T09:47:00.279Z,25.55
2022-08-21T09:49:32.646Z,24.70
2022-08-21T09:52:01.840Z,24.48
2022-08-21T09:54:33.318Z,24.49
2022-08-21T09:57:24.800Z,23.38
2022-08-21T09:59:53.722Z,22.51
2022-08-21T10:02:28.861Z,23.59
2022-08-21T10:04:59.623Z,24.84
2022-08-21T10:07:29.963Z,25.36
2022-08-21T10:10:03.154Z,24.11
2022-08-21T10:12:38.784Z,24.10
2022-08-21T10:15:20.691Z,25.22
2022-08-21T10:17:59.715Z,25.94
2022-08-21T10:20:32.687Z,26.10
2022-08-21T10:23:11.224Z,25.72
2022-08-21T10:25:56.273Z,25.35
2022-08-21T10:28:37.817Z,24.75
2022-08-21T10:31:29.303Z,22.56
2022-08-21T10:34:12.659Z,21.76
2022-08-21T10:36:50.577Z,21.27
2022-08-21T10:39:35.731Z,22.06
2022-08-21T10:42:33.463Z,22.33
2022-08-21T10:45:16.938Z,22.89
2022-08-21T10:47:49.955Z,23.25
2022-08-21T10:50:30.687Z,24.86
2022-08-21T10:53:13.732Z,26.50
2022-08-21T10:55:45.725Z,26.47
2022-08-21T10:58:16.528Z,25.35
2022-08-21T11:00:51.569Z,23.55
2022-08-21T11:03:26.165Z,23.01
2022-08-21T11:05:55.723Z,22.74
2022-08-21T11:08:27.046Z,24.61
2022-08-21T11:11:01.515Z,25.68
2022-08-21T11:13:39.295Z,25.19
2022-08-21T11:16:12.927Z,25.73
2022-08-21T11:18:45.886Z,26.72
2022-08-21T11:21:29.363Z,26.49
2022-08-21T11:24:04.629Z,26.34
2022-08-21T11:26:53.064Z,25.73
2022-08-21T11:29:25.671Z,26.46
2022-08-21T11:32:14.476Z,26.71
2022-08-21T11:34:58.214Z,26.63
2022-08-21T11:37:48.911Z,26.02
2022-08-21T11:40:26.566Z,26.44
2022-08-21T11:43:02.419Z,25.24
2022-08-21T11:45:41.727Z,26.81
2022-08-21T11:48:18.974Z,28.40
2022-08-21T11:50:50.588Z,28.81
2022-08-21T11:53:22.303Z,28.45
2022-08-21T11:55:55.114Z,26.74
2022-08-21T11:58:27.670Z,27.15
2022-08-21T12:00:59.290Z,26.97
2022-08-21T12:03:31.001Z,25.86
2022-08-21T12:06:03.863Z,27.32
2022-08-21T12:08:35.797Z,27.71
2022-08-21T12:11:08.638Z,28.56
2022-08-21T12:13:42.704Z,29.01
2022-08-21T12:16:13.171Z,27.94
2022-08-21T12:18:41.114Z,27.14
2022-08-21T12:21:23.862Z,28.06
2022-08-21T12:24:02.562Z,28.74
2022-08-21T12:26:32.724Z,27.47
2022-08-21T12:29:12.643Z,27.71
2022-08-21T12:31:51.968Z,26.63
2022-08-21T12:34:21.904Z,24.69
2022-08-21T12:36:57.547Z,25.13
2022-08-21T12:39:29.483Z,26.12
2022-08-21T12:42:02.442Z,26.17
2022-08-21T12:44:36.558Z,27.19
2022-08-21T12:47:07.140Z,29.40
2022-08-21T12:49:39.004Z,30.75
2022-08-21T12:52:15.975Z,30.41
2022-08-21T12:54:45.774Z,29.36
2022-08-21T12:57:23.088Z,29.72
2022-08-21T12:59:59.388Z,27.72
2022-08-21T13:02:30.454Z,28.12
2022-08-21T13:04:58.965Z,29.25
2022-08-21T13:07:31.442Z,30.18
2022-08-21T13:10:02.423Z,30.50
2022-08-21T13:12:32.471Z,30.53
2022-08-21T13:15:02.466Z,27.16
2022-08-21T13:17:34.218Z,25.59
2022-08-21T13:20:04.828Z,24.55
2022-08-21T13:22:37.811Z,23.94
2022-08-21T13:25:11.990Z,23.91
2022-08-21T13:27:39.747Z,24.96
2022-08-21T13:30:11.986Z,27.00
2022-08-21T13:32:46.024Z,29.25
2022-08-21T13:35:17.648Z,30.84
2022-08-21T13:37:49.126Z,31.77
2022-08-21T13:40:19.597Z,30.72
2022-08-21T13:42:49.230Z,31.09
2022-08-21T13:45:20.859Z,30.19
2022-08-21T13:47:49.484Z,29.79
2022-08-21T13:50:20.002Z,27.73
2022-08-21T13:52:58.833Z,26.45
2022-08-21T13:55:28.494Z,27.00
2022-08-21T13:58:03.070Z,27.38
2022-08-21T14:00:36.006Z,26.85
2022-08-21T14:03:07.833Z,27.04
2022-08-21T14:05:38.911Z,27.74
2022-08-21T14:08:12.679Z,28.37
2022-08-21T14:10:45.797Z,28.29
2022-08-21T14:13:31.529Z,26.81
2022-08-21T14:16:02.615Z,26.64
2022-08-21T14:18:30.748Z,26.95
2022-08-21T14:21:07.333Z,27.07
2022-08-21T14:23:36.149Z,27.24
2022-08-21T14:26:07.681Z,27.68
2022-08-21T14:28:39.562Z,27.65
2022-08-21T14:31:18.092Z,27.53
2022-08-21T14:33:47.217Z,27.03
2022-08-21T14:36:14.919Z,26.15
2022-08-21T14:38:44.260Z,26.43
2022-08-21T14:41:18.114Z,27.32
2022-08-21T14:43:47.123Z,27.64
2022-08-21T14:46:15.737Z,28.08
2022-08-21T14:48:43.764Z,27.56
2022-08-21T14:51:11.396Z,26.66
2022-08-21T14:53:38.912Z,25.73
2022-08-21T14:56:08.579Z,25.36
2022-08-21T14:58:39.010Z,24.62
2022-08-21T15:01:08.095Z,25.34
2022-08-21T15:03:36.358Z,25.87
2022-08-21T15:06:05.903Z,26.62
2022-08-21T15:08:34.046Z,26.99
2022-08-21T15:11:42.259Z,26.75
2022-08-21T15:13:57.251Z,25.98
2022-08-21T15:16:25.000Z,26.34
2022-08-21T15:18:52.604Z,26.34
2022-08-21T15:21:20.154Z,26.06
2022-08-21T15:23:47.813Z,26.20
2022-08-21T15:26:15.696Z,26.13
2022-08-21T15:28:43.332Z,26.41
2022-08-21T15:31:12.201Z,26.43
2022-08-21T15:33:39.684Z,26.26
2022-08-21T15:36:07.662Z,26.67
2022-08-21T15:38:35.304Z,26.24
2022-08-21T15:41:04.352Z,26.45
2022-08-21T15:43:40.126Z,26.17
2022-08-21T15:46:07.728Z,25.62
2022-08-21T15:48:36.612Z,25.49
2022-08-21T15:51:04.267Z,25.92
2022-08-21T15:53:32.928Z,25.99
2022-08-21T15:56:03.716Z,26.46
2022-08-21T15:58:31.237Z,25.99
2022-08-21T16:01:01.638Z,25.95
2022-08-21T16:03:29.919Z,26.12
2022-08-21T16:05:58.763Z,25.18
2022-08-21T16:08:26.576Z,24.98
2022-08-21T16:10:54.961Z,25.12
2022-08-21T16:13:26.892Z,24.77
2022-08-21T16:15:54.565Z,24.71
2022-08-21T16:18:24.048Z,25.08
2022-08-21T16:20:51.636Z,25.09
2022-08-21T16:23:20.511Z,25.30
2022-08-21T16:25:48.950Z,25.26
2022-08-21T16:28:19.040Z,25.26
2022-08-21T16:30:49.207Z,25.14
2022-08-21T16:33:25.023Z,25.54
2022-08-21T16:35:52.798Z,25.23
2022-08-21T16:38:21.859Z,25.48
2022-08-21T16:40:49.422Z,25.44
2022-08-21T16:43:17.485Z,24.82
2022-08-21T16:45:45.162Z,24.79
2022-08-21T16:48:12.688Z,24.87
2022-08-21T16:50:40.332Z,24.92
2022-08-21T16:53:08.555Z,24.95
2022-08-21T16:55:38.250Z,24.90
2022-08-21T16:58:11.311Z,24.93
2022-08-21T17:00:38.837Z,25.52
2022-08-21T17:03:06.407Z,25.69
2022-08-21T17:05:33.904Z,25.44
2022-08-21T17:08:01.445Z,26.06
2022-08-21T17:10:28.966Z,25.93
2022-08-21T17:13:00.807Z,25.72
2022-08-21T17:15:39.111Z,25.44
2022-08-21T17:18:09.947Z,25.45
2022-08-21T17:20:37.677Z,25.77
2022-08-21T17:23:06.483Z,26.31
2022-08-21T17:25:34.659Z,26.88
2022-08-21T17:28:04.235Z,26.86
2022-08-21T17:30:31.838Z,26.81
2022-08-21T17:33:01.015Z,27.70
2022-08-21T17:35:28.662Z,27.52
2022-08-21T17:37:57.039Z,27.28
2022-08-21T17:40:24.988Z,27.15
2022-08-21T17:42:52.630Z,27.90
2022-08-21T17:45:22.098Z,27.57
2022-08-21T17:47:49.650Z,27.92
2022-08-21T17:50:22.867Z,27.39
2022-08-21T17:52:50.687Z,26.94
2022-08-21T17:55:20.273Z,26.49
2022-08-21T17:57:50.878Z,26.28
2022-08-21T18:00:20.444Z,25.77
2022-08-21T18:02:57.559Z,25.42
2022-08-21T18:05:25.186Z,25.15
2022-08-21T18:07:52.715Z,24.93
2022-08-21T18:10:20.295Z,24.33
2022-08-21T18:12:47.988Z,24.27
2022-08-21T18:15:19.008Z,24.06
2022-08-21T18:17:51.224Z,23.80
2022-08-21T18:20:20.911Z,23.50
2022-08-21T18:22:48.655Z,23.25
2022-08-21T18:25:17.245Z,22.82
2022-08-21T18:27:46.693Z,22.41
2022-08-21T18:30:16.702Z,22.43
2022-08-21T18:32:44.750Z,22.31
2022-08-21T18:35:15.487Z,22.08
2022-08-21T18:37:42.999Z,21.99
2022-08-21T18:40:11.791Z,21.87
2022-08-21T18:42:43.303Z,21.71
2022-08-21T18:45:22.971Z,21.60
2022-08-21T18:47:53.321Z,21.54
2022-08-21T18:50:26.425Z,21.46
2022-08-21T18:52:54.501Z,21.31
2022-08-21T18:55:24.701Z,21.23
2022-08-21T18:57:52.531Z,21.12
2022-08-21T19:00:26.612Z,20.97
2022-08-21T19:02:54.766Z,20.87
2022-08-21T19:05:25.251Z,20.81
2022-08-21T19:07:55.023Z,20.70
2022-08-21T19:13:12.385Z,20.51
2022-08-21T19:15:42.446Z,20.39
2022-08-21T19:18:13.028Z,20.27
2022-08-21T19:20:44.539Z,20.19
2022-08-21T19:23:17.357Z,20.08
2022-08-21T19:25:51.719Z,20.02
2022-08-21T19:28:27.034Z,19.97
2022-08-21T19:30:58.400Z,19.97
2022-08-21T19:33:36.278Z,19.93
2022-08-21T19:36:06.100Z,19.88
2022-08-21T19:38:33.955Z,19.79
2022-08-21T19:41:02.543Z,19.67
2022-08-21T19:43:32.623Z,19.60
2022-08-21T19:46:01.711Z,19.47
2022-08-21T19:48:29.262Z,19.47
2022-08-21T19:50:56.771Z,19.40
2022-08-21T19:53:26.538Z,19.43
2022-08-21T19:55:54.571Z,19.39
2022-08-21T19:58:29.217Z,19.15
2022-08-21T20:00:56.760Z,18.85
2022-08-21T20:03:24.495Z,18.77
2022-08-21T20:05:52.166Z,19.10
2022-08-21T20:08:21.787Z,19.19
2022-08-21T20:10:51.551Z,19.18
2022-08-21T20:13:21.565Z,19.10
2022-08-21T20:15:50.114Z,18.91
2022-08-21T20:18:18.627Z,19.00
2022-08-21T20:20:47.719Z,18.92
2022-08-21T20:23:17.309Z,18.93
2022-08-21T20:25:59.391Z,18.87
2022-08-21T20:28:27.080Z,18.93
2022-08-21T20:30:56.418Z,18.96
2022-08-21T20:33:23.961Z,18.96
2022-08-21T20:35:52.199Z,18.90
2022-08-21T20:38:20.410Z,18.81
2022-08-21T20:40:50.530Z,18.71
2022-08-21T20:43:20.838Z,18.71
2022-08-21T20:45:49.627Z,18.64
2022-08-21T20:48:23.782Z,18.19
2022-08-21T20:51:06.736Z,16.67
2022-08-21T20:53:43.460Z,16.88
2022-08-21T20:56:16.394Z,17.22
2022-08-21T20:58:56.069Z,17.32
2022-08-21T21:01:24.279Z,17.60
2022-08-21T21:03:56.931Z,17.67
2022-08-21T21:06:29.115Z,17.93
2022-08-21T21:09:05.397Z,17.96
2022-08-21T21:11:38.310Z,17.95
2022-08-21T21:14:12.312Z,18.01
2022-08-21T21:16:45.900Z,18.48
2022-08-21T21:19:26.604Z,18.99
2022-08-21T21:21:59.527Z,19.12
2022-08-21T21:24:32.940Z,19.17
2022-08-21T21:27:11.625Z,19.08
2022-08-21T21:29:46.146Z,19.19
2022-08-21T21:32:17.774Z,19.11
2022-08-21T21:34:50.939Z,18.73
2022-08-21T21:37:25.868Z,18.43
2022-08-21T21:40:01.568Z,18.15
2022-08-21T21:42:38.253Z,17.82
2022-08-21T21:45:21.100Z,17.89
2022-08-21T21:48:04.134Z,17.77
2022-08-21T21:50:49.402Z,17.94
2022-08-21T21:53:35.524Z,18.37
2022-08-21T21:56:16.440Z,18.72
2022-08-21T21:59:09.806Z,18.77
2022-08-21T22:01:46.814Z,18.69
2022-08-21T22:04:23.572Z,17.97
2022-08-21T22:07:06.164Z,18.17
2022-08-21T22:09:44.304Z,18.49
2022-08-21T22:12:28.720Z,18.38
2022-08-21T22:14:56.547Z,18.24
2022-08-21T22:17:34.933Z,18.39
2022-08-21T22:20:08.543Z,17.63
2022-08-21T22:22:40.530Z,17.44
2022-08-21T22:25:18.358Z,17.25
2022-08-21T22:27:50.036Z,17.50
2022-08-21T22:30:37.490Z,17.70
2022-08-21T22:33:14.312Z,17.95
2022-08-21T22:35:42.157Z,18.13
2022-08-21T22:38:19.647Z,18.64
2022-08-21T22:40:50.508Z,18.79
2022-08-21T22:43:20.943Z,18.93
2022-08-21T22:45:58.780Z,19.06
2022-08-21T22:51:30.037Z,18.69
2022-08-21T22:54:00.994Z,18.70
2022-08-21T22:56:32.550Z,18.57
2022-08-21T22:59:03.555Z,18.52
2022-08-21T23:01:36.409Z,17.81
2022-08-21T23:04:18.632Z,18.58
2022-08-21T23:06:49.312Z,18.30
2022-08-21T23:09:29.427Z,18.35
2022-08-21T23:11:59.417Z,18.48
2022-08-21T23:14:28.993Z,18.38
2022-08-21T23:17:00.679Z,18.40
2022-08-21T23:19:39.377Z,18.54
2022-08-21T23:22:21.154Z,18.44
2022-08-21T23:25:02.364Z,18.37
2022-08-21T23:27:42.283Z,18.22
2022-08-21T23:30:15.137Z,18.36
2022-08-21T23:33:01.940Z,18.78
2022-08-21T23:35:51.814Z,18.74
2022-08-21T23:38:33.100Z,18.77
2022-08-21T23:41:11.419Z,18.74
2022-08-21T23:43:52.015Z,18.65
2022-08-21T23:46:43.842Z,18.54
2022-08-21T23:49:25.645Z,18.25
2022-08-21T23:52:06.896Z,17.93
2022-08-21T23:54:45.822Z,17.83
2022-08-21T23:57:31.882Z,17.86
